createdAt,value
2022-11-23T00:02:20.651Z,18.42
2022-11-23T00:04:50.596Z,17.70
2022-11-23T00:07:23.685Z,18.40
2022-11-23T00:09:53.561Z,18.25
2022-11-23T00:12:23.437Z,15.38
2022-11-23T00:14:53.247Z,18.83
2022-11-23T00:17:23.044Z,18.40
2022-11-23T00:19:52.891Z,17.02
2022-11-23T00:22:25.324Z,16.38
2022-11-23T00:24:55.222Z,12.15
2022-11-23T00:27:25.097Z,14.88
2022-11-23T00:29:55.775Z,23.80
2022-11-23T00:32:25.602Z,22.55
2022-11-23T00:34:55.510Z,20.25
2022-11-23T00:37:28.729Z,19.10
2022-11-23T00:39:59.306Z,20.65
2022-11-23T00:42:33.766Z,18.27
2022-11-23T00:45:07.187Z,17.92
2022-11-23T00:47:37.083Z,24.80
2022-11-23T00:50:09.352Z,25.35
2022-11-23T00:52:42.300Z,25.23
2022-11-23T00:55:12.437Z,18.73
2022-11-23T00:57:42.335Z,16.35
2022-11-23T01:00:14.472Z,14.90
2022-11-23T01:02:44.283Z,17.13
2022-11-23T01:05:14.293Z,18.05
2022-11-23T01:07:46.833Z,14.80
2022-11-23T01:10:16.779Z,17.13
2022-11-23T01:12:47.554Z,12.23
2022-11-23T01:15:17.559Z,10.50
2022-11-23T01:17:47.583Z,17.65
2022-11-23T01:20:18.633Z,13.95
2022-11-23T01:22:51.429Z,13.38
2022-11-23T01:25:21.540Z,10.55
2022-11-23T01:27:51.457Z,11.07
2022-11-23T01:30:24.224Z,8.35
2022-11-23T01:32:54.637Z,9.90
2022-11-23T01:35:24.517Z,14.05
2022-11-23T01:37:57.936Z,8.20
2022-11-23T01:40:27.873Z,10.57
2022-11-23T01:42:59.782Z,8.00
2022-11-23T01:45:41.852Z,9.10
2022-11-23T01:48:16.284Z,7.03
2022-11-23T01:50:47.729Z,7.63
2022-11-23T01:53:20.852Z,6.10
2022-11-23T01:55:52.654Z,7.57
2022-11-23T01:58:24.412Z,12.65
2022-11-23T02:00:55.215Z,10.85
2022-11-23T02:03:25.514Z,16.45
2022-11-23T02:06:01.679Z,13.23
2022-11-23T02:08:34.736Z,10.68
2022-11-23T02:11:04.934Z,12.13
2022-11-23T02:13:35.448Z,11.25
2022-11-23T02:16:06.212Z,9.50
2022-11-23T02:18:37.730Z,9.20
2022-11-23T02:21:08.005Z,10.88
2022-11-23T02:23:47.236Z,10.02
2022-11-23T02:26:22.107Z,11.55
2022-11-23T02:28:55.365Z,12.02
2022-11-23T02:31:25.937Z,13.15
2022-11-23T02:33:57.363Z,11.18
2022-11-23T02:36:40.011Z,12.48
2022-11-23T02:39:15.384Z,9.98
2022-11-23T02:41:49.797Z,11.75
2022-11-23T02:44:33.168Z,12.15
2022-11-23T02:47:03.145Z,9.50
2022-11-23T02:49:35.222Z,13.98
2022-11-23T02:52:05.924Z,14.68
2022-11-23T02:54:36.404Z,15.70
2022-11-23T02:57:09.842Z,15.23
2022-11-23T02:59:43.114Z,17.20
2022-11-23T03:02:13.225Z,16.20
2022-11-23T03:04:43.341Z,32.85
2022-11-23T03:07:13.241Z,22.95
2022-11-23T03:09:43.112Z,17.38
2022-11-23T03:12:16.483Z,18.23
2022-11-23T03:14:46.882Z,30.17
2022-11-23T03:17:16.780Z,14.60
2022-11-23T03:19:48.850Z,14.65
2022-11-23T03:22:18.759Z,15.07
2022-11-23T03:24:50.193Z,12.00
2022-11-23T03:27:22.825Z,9.90
2022-11-23T03:29:54.042Z,9.30
2022-11-23T03:32:24.517Z,9.02
2022-11-23T03:34:57.632Z,7.03
2022-11-23T03:37:28.273Z,9.02
2022-11-23T03:39:58.132Z,10.35
2022-11-23T03:42:54.200Z,9.73
2022-11-23T03:45:24.200Z,9.13
2022-11-23T03:47:54.424Z,33.03
2022-11-23T03:50:24.986Z,25.20
2022-11-23T03:52:54.893Z,19.70
2022-11-23T03:55:24.859Z,16.30
2022-11-23T03:57:59.731Z,21.25
2022-11-23T04:00:32.584Z,29.98
2022-11-23T04:03:02.466Z,28.75
2022-11-23T04:05:55.442Z,25.50
2022-11-23T04:08:43.846Z,15.57
2022-11-23T04:11:19.935Z,12.05
2022-11-23T04:13:55.547Z,12.07
2022-11-23T04:16:25.747Z,12.00
2022-11-23T04:18:55.823Z,12.15
2022-11-23T04:21:25.941Z,11.00
2022-11-23T04:23:55.995Z,11.55
2022-11-23T04:26:26.499Z,9.02
2022-11-23T04:28:59.934Z,7.85
2022-11-23T04:31:30.382Z,8.25
2022-11-23T04:34:13.348Z,12.25
2022-11-23T04:36:43.582Z,9.27
2022-11-23T04:39:15.533Z,8.05
2022-11-23T04:42:15.848Z,16.83
2022-11-23T04:44:55.144Z,15.23
2022-11-23T04:47:27.252Z,12.90
2022-11-23T04:49:59.484Z,7.53
2022-11-23T04:52:29.429Z,8.30
2022-11-23T04:55:00.779Z,7.72
2022-11-23T04:57:33.528Z,10.15
2022-11-23T05:00:08.122Z,9.90
2022-11-23T05:02:40.136Z,9.02
2022-11-23T05:05:21.256Z,7.80
2022-11-23T05:07:52.724Z,6.03
2022-11-23T05:10:25.552Z,5.15
2022-11-23T05:12:59.830Z,5.00
2022-11-23T05:15:34.124Z,4.65
2022-11-23T05:18:06.547Z,5.28
2022-11-23T05:20:37.458Z,3.95
2022-11-23T05:23:08.239Z,15.15
2022-11-23T05:25:41.768Z,18.90
2022-11-23T05:28:39.158Z,15.20
2022-11-23T05:31:12.103Z,13.25
2022-11-23T05:33:42.176Z,7.25
2022-11-23T05:36:14.862Z,4.88
2022-11-23T05:38:45.692Z,4.03
2022-11-23T05:41:23.083Z,4.80
2022-11-23T05:43:57.336Z,9.13
2022-11-23T05:46:33.166Z,7.00
2022-11-23T05:49:03.038Z,4.95
2022-11-23T05:51:38.407Z,4.88
2022-11-23T05:54:09.338Z,5.40
2022-11-23T05:56:43.592Z,5.22
2022-11-23T05:59:18.706Z,5.38
2022-11-23T06:02:00.272Z,4.90
2022-11-23T06:04:34.771Z,19.38
2022-11-23T06:07:05.838Z,14.45
2022-11-23T06:09:47.557Z,9.30
2022-11-23T06:12:17.961Z,8.57
2022-11-23T06:14:48.057Z,10.68
2022-11-23T06:17:24.240Z,8.70
2022-11-23T06:19:57.737Z,8.55
2022-11-23T06:22:28.504Z,9.35
2022-11-23T06:25:09.187Z,7.18
2022-11-23T06:27:42.794Z,7.63
2022-11-23T06:30:27.911Z,7.05
2022-11-23T06:33:05.945Z,6.55
2022-11-23T06:35:41.855Z,7.47
2022-11-23T06:38:11.949Z,8.10
2022-11-23T06:40:42.364Z,7.90
2022-11-23T06:43:13.473Z,8.13
2022-11-23T06:45:48.015Z,11.02
2022-11-23T06:48:21.430Z,11.35
2022-11-23T06:50:52.311Z,11.48
2022-11-23T06:53:24.817Z,10.13
2022-11-23T06:56:02.684Z,12.93
2022-11-23T06:58:36.000Z,16.55
2022-11-23T07:01:12.368Z,15.95
2022-11-23T07:03:51.325Z,16.58
2022-11-23T07:06:29.502Z,30.48
2022-11-23T07:09:03.929Z,26.30
2022-11-23T07:12:00.230Z,23.95
2022-11-23T07:14:30.742Z,19.83
2022-11-23T07:17:01.715Z,14.73
2022-11-23T07:19:34.514Z,10.27
2022-11-23T07:22:04.924Z,9.75
2022-11-23T07:24:40.467Z,8.90
2022-11-23T07:27:13.514Z,10.98
2022-11-23T07:29:43.549Z,13.52
2022-11-23T07:32:15.892Z,13.63
2022-11-23T07:34:49.214Z,11.57
2022-11-23T07:37:21.061Z,11.88
2022-11-23T07:39:58.079Z,11.13
2022-11-23T07:42:35.679Z,10.45
2022-11-23T07:45:08.618Z,10.85
2022-11-23T07:47:40.795Z,9.68
2022-11-23T07:50:15.762Z,10.57
2022-11-23T07:52:46.756Z,10.15
2022-11-23T07:55:17.276Z,12.00
2022-11-23T07:57:48.292Z,12.43
2022-11-23T08:00:21.376Z,11.63
2022-11-23T08:03:25.458Z,11.02
2022-11-23T08:05:43.998Z,14.55
2022-11-23T08:08:15.230Z,14.73
2022-11-23T08:10:51.423Z,28.55
2022-11-23T08:13:24.243Z,11.27
2022-11-23T08:15:56.052Z,11.45
2022-11-23T08:18:28.404Z,9.40
2022-11-23T08:21:03.086Z,12.50
2022-11-23T08:23:33.467Z,12.82
2022-11-23T08:26:09.087Z,18.00
2022-11-23T08:31:13.298Z,14.38
2022-11-23T08:33:44.526Z,16.88
2022-11-23T08:36:17.825Z,15.45
2022-11-23T08:38:47.679Z,14.43
2022-11-23T08:41:20.622Z,25.52
2022-11-23T08:43:51.485Z,35.35
2022-11-23T08:46:21.805Z,22.35
2022-11-23T08:48:51.659Z,22.23
2022-11-23T08:51:25.198Z,30.67
2022-11-23T08:53:55.263Z,18.92
2022-11-23T08:56:25.209Z,18.40
2022-11-23T08:58:55.950Z,16.60
2022-11-23T09:01:27.174Z,16.42
2022-11-23T09:03:58.331Z,14.52
2022-11-23T09:06:32.758Z,13.43
2022-11-23T09:09:02.987Z,13.07
2022-11-23T09:11:32.941Z,12.07
2022-11-23T09:14:03.056Z,11.90
2022-11-23T09:16:34.304Z,13.18
2022-11-23T09:19:04.911Z,11.98
2022-11-23T09:21:39.517Z,15.80
2022-11-23T09:24:10.532Z,14.65
2022-11-23T09:26:41.221Z,16.85
2022-11-23T09:29:14.573Z,14.27
2022-11-23T09:31:44.460Z,13.38
2022-11-23T09:34:15.808Z,13.48
2022-11-23T09:36:48.610Z,12.00
2022-11-23T09:39:18.735Z,11.73
2022-11-23T09:42:03.440Z,8.88
2022-11-23T09:44:45.869Z,10.02
2022-11-23T09:47:30.103Z,10.55
2022-11-23T09:50:05.004Z,32.00
2022-11-23T09:52:38.684Z,11.30
2022-11-23T09:55:15.183Z,9.68
2022-11-23T09:57:47.267Z,10.18
2022-11-23T10:00:20.477Z,8.35
2022-11-23T10:02:50.404Z,7.85
2022-11-23T10:05:23.460Z,7.97
2022-11-23T10:08:06.368Z,8.50
2022-11-23T10:10:42.592Z,9.00
2022-11-23T10:13:32.546Z,9.80
2022-11-23T10:16:17.467Z,8.35
2022-11-23T10:18:54.249Z,7.65
2022-11-23T10:21:32.655Z,9.63
2022-11-23T10:24:14.368Z,8.20
2022-11-23T10:26:47.042Z,7.80
2022-11-23T10:29:20.149Z,9.57
2022-11-23T10:31:57.072Z,9.35
2022-11-23T10:34:43.832Z,9.45
2022-11-23T10:37:15.891Z,9.00
2022-11-23T10:39:48.415Z,7.97
2022-11-23T10:42:23.721Z,9.35
2022-11-23T10:44:55.539Z,9.75
2022-11-23T10:47:41.499Z,10.60
2022-11-23T10:50:30.302Z,11.45
2022-11-23T10:53:51.345Z,10.38
2022-11-23T10:56:30.618Z,9.48
2022-11-23T10:59:00.892Z,10.15
2022-11-23T11:01:32.849Z,9.48
2022-11-23T11:04:06.361Z,8.75
2022-11-23T11:06:37.393Z,12.23
2022-11-23T11:09:13.449Z,11.68
2022-11-23T11:11:50.954Z,14.82
2022-11-23T11:14:23.453Z,9.15
2022-11-23T11:16:55.798Z,11.48
2022-11-23T11:19:30.518Z,8.98
2022-11-23T11:22:02.467Z,9.82
2022-11-23T11:24:36.515Z,8.65
2022-11-23T11:27:15.915Z,39.92
2022-11-23T11:32:25.671Z,12.60
2022-11-23T11:34:58.364Z,11.43
2022-11-23T11:37:35.574Z,10.18
2022-11-23T11:40:11.416Z,10.95
2022-11-23T11:42:48.141Z,12.52
2022-11-23T11:45:20.996Z,11.73
2022-11-23T11:47:54.968Z,14.82
2022-11-23T11:50:31.957Z,16.48
2022-11-23T11:53:07.363Z,12.80
2022-11-23T11:55:51.728Z,11.63
2022-11-23T11:58:27.487Z,10.32
2022-11-23T12:01:03.542Z,10.73
2022-11-23T12:03:43.035Z,10.02
2022-11-23T12:06:23.670Z,9.88
2022-11-23T12:09:01.846Z,9.75
2022-11-23T12:11:31.885Z,8.48
2022-11-23T12:14:06.615Z,8.73
2022-11-23T12:16:42.793Z,7.20
2022-11-23T12:19:19.642Z,6.90
2022-11-23T12:22:07.482Z,8.25
2022-11-23T12:24:49.248Z,8.93
2022-11-23T12:27:28.661Z,7.85
2022-11-23T12:30:19.423Z,9.95
2022-11-23T12:33:04.361Z,38.17
2022-11-23T12:36:00.108Z,15.38
2022-11-23T12:38:35.162Z,10.32
2022-11-23T12:41:33.485Z,9.25
2022-11-23T12:44:52.057Z,10.50
2022-11-23T12:47:35.152Z,10.38
2022-11-23T12:50:13.884Z,11.20
2022-11-23T12:52:58.410Z,9.82
2022-11-23T12:55:32.346Z,10.45
2022-11-23T12:58:08.390Z,11.25
2022-11-23T13:00:44.184Z,9.75
2022-11-23T13:03:41.444Z,10.15
2022-11-23T13:07:20.416Z,10.65
2022-11-23T13:09:59.587Z,9.73
2022-11-23T13:12:44.058Z,11.23
2022-11-23T13:15:28.050Z,11.60
2022-11-23T13:18:03.383Z,9.43
2022-11-23T13:21:19.174Z,13.07
2022-11-23T13:23:49.815Z,9.77
2022-11-23T13:26:24.746Z,11.88
2022-11-23T13:28:57.200Z,10.02
2022-11-23T13:31:31.862Z,9.45
2022-11-23T13:34:04.277Z,11.10
2022-11-23T13:40:04.547Z,9.98
2022-11-23T13:42:37.049Z,10.30
2022-11-23T13:45:27.040Z,10.57
2022-11-23T13:48:48.802Z,11.75
2022-11-23T13:51:09.755Z,11.02
2022-11-23T13:53:44.413Z,11.73
2022-11-23T13:56:35.567Z,16.08
2022-11-23T13:59:31.257Z,13.85
2022-11-23T14:02:04.208Z,10.85
2022-11-23T14:04:35.857Z,11.50
2022-11-23T14:07:07.142Z,12.27
2022-11-23T14:09:47.315Z,14.27
2022-11-23T14:12:22.006Z,13.30
2022-11-23T14:14:56.873Z,12.98
2022-11-23T14:18:06.607Z,12.02
2022-11-23T14:20:44.574Z,11.50
2022-11-23T14:23:36.972Z,12.77
2022-11-23T14:26:22.370Z,13.48
2022-11-23T14:29:06.779Z,13.80
2022-11-23T14:31:42.636Z,11.10
2022-11-23T14:34:20.742Z,12.05
2022-11-23T14:36:56.833Z,11.13
2022-11-23T14:39:54.879Z,9.65
2022-11-23T14:42:29.889Z,10.15
2022-11-23T14:45:04.863Z,11.02
2022-11-23T14:47:36.557Z,9.07
2022-11-23T14:50:07.293Z,9.38
2022-11-23T14:52:39.449Z,10.85
2022-11-23T14:55:13.571Z,10.90
2022-11-23T14:57:49.352Z,13.40
2022-11-23T15:00:32.843Z,25.05
2022-11-23T15:03:27.142Z,27.30
2022-11-23T15:05:58.616Z,38.47
2022-11-23T15:08:32.854Z,47.22
2022-11-23T15:11:08.523Z,24.40
2022-11-23T15:13:49.756Z,23.02
2022-11-23T15:16:21.659Z,15.38
2022-11-23T15:18:52.361Z,13.65
2022-11-23T15:21:27.239Z,34.17
2022-11-23T15:24:00.466Z,18.27
2022-11-23T15:26:47.851Z,20.13
2022-11-23T15:29:39.789Z,16.47
2022-11-23T15:32:31.323Z,18.30
2022-11-23T15:35:04.735Z,20.88
2022-11-23T15:37:37.320Z,25.55
2022-11-23T15:40:09.069Z,28.42
2022-11-23T15:42:40.233Z,28.52
2022-11-23T15:45:41.235Z,25.25
2022-11-23T15:48:15.148Z,21.00
2022-11-23T15:50:52.660Z,25.30
2022-11-23T15:53:27.652Z,26.52
2022-11-23T15:55:57.788Z,24.58
2022-11-23T15:58:27.982Z,22.20
2022-11-23T16:01:07.334Z,19.55
2022-11-23T16:03:41.631Z,20.25
2022-11-23T16:06:28.442Z,18.48
2022-11-23T16:08:58.458Z,30.77
2022-11-23T16:11:35.263Z,23.02
2022-11-23T16:14:16.050Z,22.58
2022-11-23T16:16:50.911Z,22.02
2022-11-23T16:19:27.289Z,22.73
2022-11-23T16:22:02.450Z,31.15
2022-11-23T16:24:35.740Z,36.05
2022-11-23T16:27:15.463Z,44.70
2022-11-23T16:32:29.099Z,40.67
2022-11-23T16:35:01.514Z,46.40
2022-11-23T16:37:32.038Z,44.08
2022-11-23T16:40:01.932Z,48.15
2022-11-23T16:42:31.866Z,49.72
2022-11-23T16:45:02.486Z,50.42
2022-11-23T16:47:34.956Z,47.15
2022-11-23T16:50:05.275Z,41.50
2022-11-23T16:52:35.259Z,33.72
2022-11-23T16:55:05.261Z,30.00
2022-11-23T16:57:37.180Z,41.60
2022-11-23T17:00:10.420Z,30.60
2022-11-23T17:02:43.644Z,21.27
2022-11-23T17:05:18.195Z,26.52
2022-11-23T17:07:48.354Z,18.08
2022-11-23T17:10:18.662Z,19.50
2022-11-23T17:12:52.943Z,20.02
2022-11-23T17:15:24.797Z,22.13
2022-11-23T17:17:58.366Z,21.88
2022-11-23T17:20:29.424Z,18.70
2022-11-23T17:23:01.275Z,105.30
2022-11-23T17:25:31.132Z,48.38
2022-11-23T17:28:02.076Z,33.50
2022-11-23T17:30:33.025Z,33.28
2022-11-23T17:33:06.225Z,50.28
2022-11-23T17:35:38.266Z,37.33
2022-11-23T17:38:09.437Z,35.75
2022-11-23T17:40:39.836Z,28.45
2022-11-23T17:43:09.789Z,27.95
2022-11-23T17:45:39.899Z,25.95
2022-11-23T17:48:13.667Z,30.17
2022-11-23T17:50:43.678Z,33.67
2022-11-23T17:53:13.955Z,45.00
2022-11-23T17:55:45.293Z,48.38
2022-11-23T17:58:15.448Z,59.63
2022-11-23T18:00:45.604Z,49.13
2022-11-23T18:03:18.349Z,34.03
2022-11-23T18:05:49.166Z,34.60
2022-11-23T18:08:19.000Z,34.60
2022-11-23T18:10:48.929Z,31.73
2022-11-23T18:13:19.086Z,32.15
2022-11-23T18:15:49.042Z,30.67
2022-11-23T18:18:21.477Z,30.55
2022-11-23T18:20:51.372Z,28.60
2022-11-23T18:23:21.332Z,29.90
2022-11-23T18:26:01.267Z,27.95
2022-11-23T18:28:32.178Z,28.30
2022-11-23T18:31:02.828Z,27.58
2022-11-23T18:33:35.385Z,27.17
2022-11-23T18:36:05.834Z,27.10
2022-11-23T18:38:37.652Z,26.95
2022-11-23T18:41:08.066Z,27.92
2022-11-23T18:43:38.117Z,24.30
2022-11-23T18:46:10.295Z,26.25
2022-11-23T18:48:42.842Z,24.77
2022-11-23T18:51:13.483Z,26.73
2022-11-23T18:53:44.857Z,25.23
2022-11-23T18:56:14.709Z,27.77
2022-11-23T18:58:46.784Z,27.90
2022-11-23T19:01:18.455Z,27.25
2022-11-23T19:03:52.873Z,25.10
2022-11-23T19:06:25.007Z,30.00
2022-11-23T19:08:58.393Z,37.08
2022-11-23T19:11:29.818Z,36.10
2022-11-23T19:14:01.616Z,35.50
2022-11-23T19:16:33.233Z,36.05
2022-11-23T19:19:07.694Z,37.40
2022-11-23T19:21:39.226Z,39.28
2022-11-23T19:24:11.775Z,37.28
2022-11-23T19:26:42.107Z,40.13
2022-11-23T19:29:13.760Z,38.10
2022-11-23T19:31:43.731Z,36.30
2022-11-23T19:34:16.287Z,41.65
2022-11-23T19:36:46.280Z,58.63
2022-11-23T19:39:16.890Z,75.25
2022-11-23T19:41:47.162Z,41.40
2022-11-23T19:44:17.017Z,37.25
2022-11-23T19:46:47.093Z,40.33
2022-11-23T19:49:19.576Z,39.28
2022-11-23T19:51:52.392Z,41.47
2022-11-23T19:54:22.285Z,42.05
2022-11-23T19:56:52.625Z,40.53
2022-11-23T19:59:22.448Z,42.00
2022-11-23T20:01:52.312Z,43.50
2022-11-23T20:04:25.049Z,38.20
2022-11-23T20:06:54.945Z,41.35
2022-11-23T20:09:27.805Z,38.78
2022-11-23T20:11:57.723Z,36.95
2022-11-23T20:14:27.555Z,40.17
2022-11-23T20:16:57.404Z,39.75
2022-11-23T20:19:29.892Z,38.05
2022-11-23T20:21:59.968Z,36.13
2022-11-23T20:24:29.837Z,32.85
2022-11-23T20:26:59.700Z,34.58
2022-11-23T20:29:29.994Z,35.08
2022-11-23T20:31:59.905Z,34.70
2022-11-23T20:34:32.442Z,43.38
2022-11-23T20:37:02.826Z,41.75
2022-11-23T20:39:32.914Z,39.65
2022-11-23T20:42:03.597Z,40.97
2022-11-23T20:44:34.267Z,40.00
2022-11-23T20:47:05.149Z,44.92
2022-11-23T20:49:38.056Z,47.20
2022-11-23T20:52:08.822Z,43.70
2022-11-23T20:54:38.652Z,43.92
2022-11-23T20:57:09.909Z,45.47
2022-11-23T20:59:39.753Z,43.25
2022-11-23T21:02:11.878Z,42.78
2022-11-23T21:04:44.467Z,40.03
2022-11-23T21:07:14.340Z,43.70
2022-11-23T21:09:44.171Z,41.13
2022-11-23T21:12:26.391Z,38.00
2022-11-23T21:14:56.860Z,37.63
2022-11-23T21:17:26.701Z,39.10
2022-11-23T21:19:59.531Z,36.15
2022-11-23T21:22:29.692Z,40.30
2022-11-23T21:25:00.302Z,38.95
2022-11-23T21:27:30.146Z,37.45
2022-11-23T21:30:01.155Z,38.80
2022-11-23T21:32:31.136Z,38.08
2022-11-23T21:35:03.693Z,37.28
2022-11-23T21:37:33.630Z,38.47
2022-11-23T21:40:03.687Z,39.40
2022-11-23T21:42:34.596Z,36.70
2022-11-23T21:45:04.427Z,34.35
2022-11-23T21:47:35.289Z,35.22
2022-11-23T21:50:08.725Z,32.58
2022-11-23T21:52:38.597Z,37.92
2022-11-23T21:55:10.049Z,35.47
2022-11-23T21:57:39.865Z,37.42
2022-11-23T22:00:11.706Z,33.55
2022-11-23T22:02:42.112Z,31.23
2022-11-23T22:05:15.050Z,30.60
2022-11-23T22:08:00.467Z,27.08
2022-11-23T22:10:34.855Z,30.05
2022-11-23T22:13:05.448Z,26.60
2022-11-23T22:15:35.369Z,27.05
2022-11-23T22:18:05.614Z,28.42
2022-11-23T22:20:39.052Z,29.30
2022-11-23T22:23:09.220Z,29.27
2022-11-23T22:25:40.975Z,27.77
2022-11-23T22:28:12.935Z,28.05
2022-11-23T22:30:42.928Z,30.55
2022-11-23T22:33:13.643Z,26.38
2022-11-23T22:35:46.874Z,26.75
2022-11-23T22:38:16.794Z,26.65
2022-11-23T22:40:49.272Z,29.02
2022-11-23T22:43:19.422Z,29.33
2022-11-23T22:45:49.968Z,26.50
2022-11-23T22:48:19.974Z,28.60
2022-11-23T22:51:00.442Z,28.23
2022-11-23T22:53:31.439Z,26.23
2022-11-23T22:56:03.940Z,26.75
2022-11-23T22:58:35.098Z,27.23
2022-11-23T23:01:09.284Z,22.77
2022-11-23T23:03:39.364Z,28.52
2022-11-23T23:06:18.106Z,27.92
2022-11-23T23:08:49.335Z,23.77
2022-11-23T23:11:19.250Z,25.05
2022-11-23T23:13:49.128Z,25.08
2022-11-23T23:16:19.132Z,26.55
2022-11-23T23:18:49.095Z,27.83
2022-11-23T23:21:23.323Z,23.88
2022-11-23T23:23:54.653Z,26.15
2022-11-23T23:26:26.331Z,26.77
2022-11-23T23:28:57.166Z,31.05
2022-11-23T23:31:27.409Z,27.63
2022-11-23T23:33:57.444Z,28.30
2022-11-23T23:36:30.088Z,22.90
2022-11-23T23:39:00.644Z,24.95
2022-11-23T23:41:30.551Z,24.75
2022-11-23T23:44:00.759Z,21.83
2022-11-23T23:46:30.768Z,24.33
2022-11-23T23:49:01.900Z,21.40
2022-11-23T23:51:34.471Z,22.48
2022-11-23T23:54:05.504Z,28.25
2022-11-23T23:56:35.419Z,25.38
2022-11-23T23:59:05.461Z,24.60
